sensor_id;sensor_type;location;lat;lon;timestamp;temperature;humidity
71367;DHT22;60030;52.274;8.040;2023-03-02T00:01:37;4.20;99.90
71367;DHT22;60030;52.274;8.040;2023-03-02T00:04:08;4.10;99.90
71367;DHT22;60030;52.274;8.040;2023-03-02T00:06:36;4.20;99.90
71367;DHT22;60030;52.274;8.040;2023-03-02T00:09:04;4.30;99.90
71367;DHT22;60030;52.274;8.040;2023-03-02T00:11:33;4.30;99.90
71367;DHT22;60030;52.274;8.040;2023-03-02T00:14:01;4.40;99.90
71367;DHT22;60030;52.274;8.040;2023-03-02T00:16:29;4.50;99.90
71367;DHT22;60030;52.274;8.040;2023-03-02T00:18:56;4.50;99.90
71367;DHT22;60030;52.274;8.040;2023-03-02T00:21:23;4.50;99.90
71367;DHT22;60030;52.274;8.040;2023-03-02T00:23:51;4.30;99.90
71367;DHT22;60030;52.274;8.040;2023-03-02T00:26:18;4.30;99.90
71367;DHT22;60030;52.274;8.040;2023-03-02T00:28:45;4.30;99.90
71367;DHT22;60030;52.274;8.040;2023-03-02T00:31:12;4.30;99.90
71367;DHT22;60030;52.274;8.040;2023-03-02T00:33:41;4.30;99.90
71367;DHT22;60030;52.274;8.040;2023-03-02T00:36:14;4.20;99.90
71367;DHT22;60030;52.274;8.040;2023-03-02T00:38:41;4.30;99.90
71367;DHT22;60030;52.274;8.040;2023-03-02T00:41:10;4.30;99.90
71367;DHT22;60030;52.274;8.040;2023-03-02T00:43:37;4.30;99.90
71367;DHT22;60030;52.274;8.040;2023-03-02T00:46:08;3.90;99.90
71367;DHT22;60030;52.274;8.040;2023-03-02T00:48:36;3.60;99.90
71367;DHT22;60030;52.274;8.040;2023-03-02T00:51:05;3.40;99.90
71367;DHT22;60030;52.274;8.040;2023-03-02T00:53:33;3.20;99.90
71367;DHT22;60030;52.274;8.040;2023-03-02T00:56:00;3.00;99.90
71367;DHT22;60030;52.274;8.040;2023-03-02T00:58:30;2.90;99.90
71367;DHT22;60030;52.274;8.040;2023-03-02T01:01:04;3.30;99.90
71367;DHT22;60030;52.274;8.040;2023-03-02T01:03:34;3.20;99.90
71367;DHT22;60030;52.274;8.040;2023-03-02T01:06:02;3.40;99.90
71367;DHT22;60030;52.274;8.040;2023-03-02T01:08:31;3.20;99.90
71367;DHT22;60030;52.274;8.040;2023-03-02T01:10:58;3.40;99.90
71367;DHT22;60030;52.274;8.040;2023-03-02T01:13:27;3.50;99.90
71367;DHT22;60030;52.274;8.040;2023-03-02T01:16:00;3.20;99.90
71367;DHT22;60030;52.274;8.040;2023-03-02T01:18:28;3.10;99.90
71367;DHT22;60030;52.274;8.040;2023-03-02T01:21:01;3.20;99.90
71367;DHT22;60030;52.274;8.040;2023-03-02T01:23:28;3.20;99.90
71367;DHT22;60030;52.274;8.040;2023-03-02T01:25:57;2.90;99.90
71367;DHT22;60030;52.274;8.040;2023-03-02T01:28:24;3.20;99.90
71367;DHT22;60030;52.274;8.040;2023-03-02T01:30:51;3.10;99.90
71367;DHT22;60030;52.274;8.040;2023-03-02T01:33:19;3.30;99.90
71367;DHT22;60030;52.274;8.040;2023-03-02T01:35:46;3.40;99.90
71367;DHT22;60030;52.274;8.040;2023-03-02T01:38:13;3.10;99.90
71367;DHT22;60030;52.274;8.040;2023-03-02T01:40:40;3.20;99.90
71367;DHT22;60030;52.274;8.040;2023-03-02T01:43:13;3.20;99.90
71367;DHT22;60030;52.274;8.040;2023-03-02T01:45:52;3.20;99.90
71367;DHT22;60030;52.274;8.040;2023-03-02T01:48:28;3.00;99.90
71367;DHT22;60030;52.274;8.040;2023-03-02T01:50:57;2.90;99.90
71367;DHT22;60030;52.274;8.040;2023-03-02T01:53:28;2.80;99.90
71367;DHT22;60030;52.274;8.040;2023-03-02T01:55:58;3.00;99.90
71367;DHT22;60030;52.274;8.040;2023-03-02T01:58:30;2.90;99.90
71367;DHT22;60030;52.274;8.040;2023-03-02T02:00:57;2.80;99.90
71367;DHT22;60030;52.274;8.040;2023-03-02T02:03:26;2.90;99.90
71367;DHT22;60030;52.274;8.040;2023-03-02T02:06:00;2.80;99.90
71367;DHT22;60030;52.274;8.040;2023-03-02T02:08:29;2.80;99.90
71367;DHT22;60030;52.274;8.040;2023-03-02T02:10:57;2.60;99.90
71367;DHT22;60030;52.274;8.040;2023-03-02T02:13:24;2.50;99.90
71367;DHT22;60030;52.274;8.040;2023-03-02T02:15:53;2.70;99.90
71367;DHT22;60030;52.274;8.040;2023-03-02T02:18:20;3.00;99.90
71367;DHT22;60030;52.274;8.040;2023-03-02T02:20:49;3.20;99.90
71367;DHT22;60030;52.274;8.040;2023-03-02T02:23:24;3.00;99.90
71367;DHT22;60030;52.274;8.040;2023-03-02T02:26:12;2.70;99.90
71367;DHT22;60030;52.274;8.040;2023-03-02T02:28:48;2.60;99.90
71367;DHT22;60030;52.274;8.040;2023-03-02T02:31:20;2.60;99.90
71367;DHT22;60030;52.274;8.040;2023-03-02T02:33:50;2.70;99.90
71367;DHT22;60030;52.274;8.040;2023-03-02T02:36:22;2.60;99.90
71367;DHT22;60030;52.274;8.040;2023-03-02T02:38:54;2.60;99.90
71367;DHT22;60030;52.274;8.040;2023-03-02T02:41:25;2.50;99.90
71367;DHT22;60030;52.274;8.040;2023-03-02T02:43:54;2.60;99.90
71367;DHT22;60030;52.274;8.040;2023-03-02T02:46:22;2.40;99.90
71367;DHT22;60030;52.274;8.040;2023-03-02T02:48:49;2.20;99.90
71367;DHT22;60030;52.274;8.040;2023-03-02T02:51:19;2.20;99.90
71367;DHT22;60030;52.274;8.040;2023-03-02T02:53:53;2.30;99.90
71367;DHT22;60030;52.274;8.040;2023-03-02T02:56:27;2.20;99.90
71367;DHT22;60030;52.274;8.040;2023-03-02T02:58:57;2.10;99.90
71367;DHT22;60030;52.274;8.040;2023-03-02T03:01:25;2.10;99.90
71367;DHT22;60030;52.274;8.040;2023-03-02T03:03:55;2.00;99.90
71367;DHT22;60030;52.274;8.040;2023-03-02T03:06:24;2.20;99.90
71367;DHT22;60030;52.274;8.040;2023-03-02T03:08:59;2.50;99.90
71367;DHT22;60030;52.274;8.040;2023-03-02T03:11:38;2.60;99.90
71367;DHT22;60030;52.274;8.040;2023-03-02T03:14:08;2.50;99.90
71367;DHT22;60030;52.274;8.040;2023-03-02T03:16:38;2.30;99.90
71367;DHT22;60030;52.274;8.040;2023-03-02T03:19:11;2.50;99.90
71367;DHT22;60030;52.274;8.040;2023-03-02T03:21:39;2.40;99.90
71367;DHT22;60030;52.274;8.040;2023-03-02T03:24:07;2.40;99.90
71367;DHT22;60030;52.274;8.040;2023-03-02T03:26:36;2.30;99.90
71367;DHT22;60030;52.274;8.040;2023-03-02T03:29:03;2.60;99.90
71367;DHT22;60030;52.274;8.040;2023-03-02T03:31:30;2.40;99.90
71367;DHT22;60030;52.274;8.040;2023-03-02T03:33:58;2.60;99.90
71367;DHT22;60030;52.274;8.040;2023-03-02T03:36:29;2.50;99.90
71367;DHT22;60030;52.274;8.040;2023-03-02T03:38:57;2.40;99.90
71367;DHT22;60030;52.274;8.040;2023-03-02T03:41:24;2.60;99.90
71367;DHT22;60030;52.274;8.040;2023-03-02T03:43:54;2.70;99.90
71367;DHT22;60030;52.274;8.040;2023-03-02T03:46:21;2.80;99.90
71367;DHT22;60030;52.274;8.040;2023-03-02T03:48:48;2.80;99.90
71367;DHT22;60030;52.274;8.040;2023-03-02T03:51:15;2.60;99.90
71367;DHT22;60030;52.274;8.040;2023-03-02T03:53:45;2.50;99.90
71367;DHT22;60030;52.274;8.040;2023-03-02T03:56:25;2.40;99.90
71367;DHT22;60030;52.274;8.040;2023-03-02T03:58:54;2.50;99.90
71367;DHT22;60030;52.274;8.040;2023-03-02T04:01:33;2.70;99.90
71367;DHT22;60030;52.274;8.040;2023-03-02T04:04:03;2.60;99.90
71367;DHT22;60030;52.274;8.040;2023-03-02T04:06:30;2.80;99.90
71367;DHT22;60030;52.274;8.040;2023-03-02T04:08:57;2.50;99.90
71367;DHT22;60030;52.274;8.040;2023-03-02T04:11:29;2.50;99.90
71367;DHT22;60030;52.274;8.040;2023-03-02T04:13:58;2.40;99.90
71367;DHT22;60030;52.274;8.040;2023-03-02T04:16:25;2.40;99.90
71367;DHT22;60030;52.274;8.040;2023-03-02T04:18:53;2.10;99.90
71367;DHT22;60030;52.274;8.040;2023-03-02T04:21:20;2.20;99.90
71367;DHT22;60030;52.274;8.040;2023-03-02T04:23:48;2.30;99.90
71367;DHT22;60030;52.274;8.040;2023-03-02T04:26:15;2.20;99.90
71367;DHT22;60030;52.274;8.040;2023-03-02T04:28:42;2.30;99.90
71367;DHT22;60030;52.274;8.040;2023-03-02T04:31:11;2.30;99.90
71367;DHT22;60030;52.274;8.040;2023-03-02T04:33:38;2.00;99.90
71367;DHT22;60030;52.274;8.040;2023-03-02T04:36:06;1.90;99.90
71367;DHT22;60030;52.274;8.040;2023-03-02T04:38:33;1.90;99.90
71367;DHT22;60030;52.274;8.040;2023-03-02T04:41:00;1.80;99.90
71367;DHT22;60030;52.274;8.040;2023-03-02T04:43:27;1.90;99.90
71367;DHT22;60030;52.274;8.040;2023-03-02T04:45:54;1.90;99.90
71367;DHT22;60030;52.274;8.040;2023-03-02T04:48:23;1.90;99.90
71367;DHT22;60030;52.274;8.040;2023-03-02T04:50:50;1.80;99.90
71367;DHT22;60030;52.274;8.040;2023-03-02T04:53:17;1.80;99.90
71367;DHT22;60030;52.274;8.040;2023-03-02T04:55:44;1.90;99.90
71367;DHT22;60030;52.274;8.040;2023-03-02T04:58:12;2.00;99.90
71367;DHT22;60030;52.274;8.040;2023-03-02T05:00:39;1.90;99.90
71367;DHT22;60030;52.274;8.040;2023-03-02T05:03:06;1.80;99.90
71367;DHT22;60030;52.274;8.040;2023-03-02T05:05:34;1.70;99.90
71367;DHT22;60030;52.274;8.040;2023-03-02T05:08:02;1.70;99.90
71367;DHT22;60030;52.274;8.040;2023-03-02T05:10:29;1.80;99.90
71367;DHT22;60030;52.274;8.040;2023-03-02T05:12:56;1.80;99.90
71367;DHT22;60030;52.274;8.040;2023-03-02T05:15:32;1.70;99.90
71367;DHT22;60030;52.274;8.040;2023-03-02T05:18:01;1.70;99.90
71367;DHT22;60030;52.274;8.040;2023-03-02T05:20:28;1.80;99.90
71367;DHT22;60030;52.274;8.040;2023-03-02T05:22:59;1.80;99.90
71367;DHT22;60030;52.274;8.040;2023-03-02T05:25:29;1.80;99.90
71367;DHT22;60030;52.274;8.040;2023-03-02T05:27:56;1.80;99.90
71367;DHT22;60030;52.274;8.040;2023-03-02T05:30:24;1.50;99.90
71367;DHT22;60030;52.274;8.040;2023-03-02T05:32:51;1.70;99.90
71367;DHT22;60030;52.274;8.040;2023-03-02T05:35:19;1.90;99.90
71367;DHT22;60030;52.274;8.040;2023-03-02T05:37:47;2.00;99.90
71367;DHT22;60030;52.274;8.040;2023-03-02T05:40:17;1.80;99.90
71367;DHT22;60030;52.274;8.040;2023-03-02T05:42:45;1.50;99.90
71367;DHT22;60030;52.274;8.040;2023-03-02T05:45:18;1.60;99.90
71367;DHT22;60030;52.274;8.040;2023-03-02T05:47:45;1.80;99.90
71367;DHT22;60030;52.274;8.040;2023-03-02T05:50:12;1.80;99.90
71367;DHT22;60030;52.274;8.040;2023-03-02T05:52:40;2.10;99.90
71367;DHT22;60030;52.274;8.040;2023-03-02T05:55:07;2.10;99.90
71367;DHT22;60030;52.274;8.040;2023-03-02T05:57:36;1.90;99.90
71367;DHT22;60030;52.274;8.040;2023-03-02T06:00:04;1.80;99.90
71367;DHT22;60030;52.274;8.040;2023-03-02T06:02:38;2.10;99.90
71367;DHT22;60030;52.274;8.040;2023-03-02T06:05:07;1.90;99.90
71367;DHT22;60030;52.274;8.040;2023-03-02T06:07:35;2.30;99.90
71367;DHT22;60030;52.274;8.040;2023-03-02T06:10:02;2.10;99.90
71367;DHT22;60030;52.274;8.040;2023-03-02T06:12:29;2.10;99.90
71367;DHT22;60030;52.274;8.040;2023-03-02T06:14:58;2.20;99.90
71367;DHT22;60030;52.274;8.040;2023-03-02T06:17:25;1.90;99.90
71367;DHT22;60030;52.274;8.040;2023-03-02T06:19:52;2.00;99.90
71367;DHT22;60030;52.274;8.040;2023-03-02T06:22:19;2.10;99.90
71367;DHT22;60030;52.274;8.040;2023-03-02T06:24:46;1.90;99.90
71367;DHT22;60030;52.274;8.040;2023-03-02T06:27:14;1.70;99.90
71367;DHT22;60030;52.274;8.040;2023-03-02T06:29:41;1.70;99.90
71367;DHT22;60030;52.274;8.040;2023-03-02T06:32:09;1.80;99.90
71367;DHT22;60030;52.274;8.040;2023-03-02T06:34:36;1.90;99.90
71367;DHT22;60030;52.274;8.040;2023-03-02T06:37:03;1.90;99.90
71367;DHT22;60030;52.274;8.040;2023-03-02T06:39:30;2.00;99.90
71367;DHT22;60030;52.274;8.040;2023-03-02T06:41:58;1.90;99.90
71367;DHT22;60030;52.274;8.040;2023-03-02T06:44:25;2.10;99.90
71367;DHT22;60030;52.274;8.040;2023-03-02T06:46:52;2.20;99.90
71367;DHT22;60030;52.274;8.040;2023-03-02T06:49:21;2.20;99.90
71367;DHT22;60030;52.274;8.040;2023-03-02T06:51:49;2.00;99.90
71367;DHT22;60030;52.274;8.040;2023-03-02T06:54:16;2.20;99.90
71367;DHT22;60030;52.274;8.040;2023-03-02T06:56:43;2.20;99.90
71367;DHT22;60030;52.274;8.040;2023-03-02T06:59:10;2.30;99.90
71367;DHT22;60030;52.274;8.040;2023-03-02T07:01:37;2.30;99.90
71367;DHT22;60030;52.274;8.040;2023-03-02T07:04:04;2.50;99.90
71367;DHT22;60030;52.274;8.040;2023-03-02T07:06:33;2.40;99.90
71367;DHT22;60030;52.274;8.040;2023-03-02T07:09:00;2.60;99.90
71367;DHT22;60030;52.274;8.040;2023-03-02T07:11:27;2.60;99.90
71367;DHT22;60030;52.274;8.040;2023-03-02T07:13:54;2.80;99.90
71367;DHT22;60030;52.274;8.040;2023-03-02T07:16:21;2.60;99.90
71367;DHT22;60030;52.274;8.040;2023-03-02T07:18:48;2.50;99.90
71367;DHT22;60030;52.274;8.040;2023-03-02T07:21:15;2.70;99.90
71367;DHT22;60030;52.274;8.040;2023-03-02T07:23:44;2.80;99.90
71367;DHT22;60030;52.274;8.040;2023-03-02T07:26:11;2.80;99.90
71367;DHT22;60030;52.274;8.040;2023-03-02T07:28:39;3.00;99.90
71367;DHT22;60030;52.274;8.040;2023-03-02T07:31:07;2.80;99.90
71367;DHT22;60030;52.274;8.040;2023-03-02T07:33:35;2.80;99.90
71367;DHT22;60030;52.274;8.040;2023-03-02T07:36:03;2.80;99.90
71367;DHT22;60030;52.274;8.040;2023-03-02T07:38:30;2.80;99.90
71367;DHT22;60030;52.274;8.040;2023-03-02T07:40:58;2.80;99.90
71367;DHT22;60030;52.274;8.040;2023-03-02T07:43:25;2.90;99.90
71367;DHT22;60030;52.274;8.040;2023-03-02T07:45:54;2.90;99.90
71367;DHT22;60030;52.274;8.040;2023-03-02T07:48:21;2.70;99.90
71367;DHT22;60030;52.274;8.040;2023-03-02T07:50:48;3.00;99.90
71367;DHT22;60030;52.274;8.040;2023-03-02T07:53:15;3.10;99.90
71367;DHT22;60030;52.274;8.040;2023-03-02T07:55:42;3.20;99.90
71367;DHT22;60030;52.274;8.040;2023-03-02T07:58:10;3.10;99.90
71367;DHT22;60030;52.274;8.040;2023-03-02T08:00:37;3.00;99.90
71367;DHT22;60030;52.274;8.040;2023-03-02T08:03:04;2.90;99.90
71367;DHT22;60030;52.274;8.040;2023-03-02T08:05:31;3.00;99.90
71367;DHT22;60030;52.274;8.040;2023-03-02T08:07:58;3.00;99.90
71367;DHT22;60030;52.274;8.040;2023-03-02T08:10:25;3.10;99.90
71367;DHT22;60030;52.274;8.040;2023-03-02T08:12:52;2.80;99.90
71367;DHT22;60030;52.274;8.040;2023-03-02T08:15:21;2.60;99.90
71367;DHT22;60030;52.274;8.040;2023-03-02T08:17:48;2.60;99.90
71367;DHT22;60030;52.274;8.040;2023-03-02T08:20:15;2.80;99.90
71367;DHT22;60030;52.274;8.040;2023-03-02T08:22:42;2.80;99.90
71367;DHT22;60030;52.274;8.040;2023-03-02T08:25:09;2.80;99.90
71367;DHT22;60030;52.274;8.040;2023-03-02T08:27:36;3.20;99.90
71367;DHT22;60030;52.274;8.040;2023-03-02T08:30:06;3.20;99.90
71367;DHT22;60030;52.274;8.040;2023-03-02T08:32:36;3.40;99.90
71367;DHT22;60030;52.274;8.040;2023-03-02T08:35:04;3.40;99.90
71367;DHT22;60030;52.274;8.040;2023-03-02T08:37:32;3.70;99.90
71367;DHT22;60030;52.274;8.040;2023-03-02T08:39:59;3.60;99.90
71367;DHT22;60030;52.274;8.040;2023-03-02T08:42:26;3.30;99.90
71367;DHT22;60030;52.274;8.040;2023-03-02T08:44:53;3.00;99.90
71367;DHT22;60030;52.274;8.040;2023-03-02T08:47:20;3.50;99.90
71367;DHT22;60030;52.274;8.040;2023-03-02T08:49:49;3.50;99.90
71367;DHT22;60030;52.274;8.040;2023-03-02T08:52:16;3.80;99.90
71367;DHT22;60030;52.274;8.040;2023-03-02T08:54:43;4.00;99.90
71367;DHT22;60030;52.274;8.040;2023-03-02T08:57:11;3.60;99.90
71367;DHT22;60030;52.274;8.040;2023-03-02T08:59:38;3.50;99.90
71367;DHT22;60030;52.274;8.040;2023-03-02T09:02:06;3.60;99.90
71367;DHT22;60030;52.274;8.040;2023-03-02T09:04:34;3.90;99.90
71367;DHT22;60030;52.274;8.040;2023-03-02T09:07:02;4.00;99.90
71367;DHT22;60030;52.274;8.040;2023-03-02T09:09:29;4.20;99.90
71367;DHT22;60030;52.274;8.040;2023-03-02T09:11:56;4.30;99.90
71367;DHT22;60030;52.274;8.040;2023-03-02T09:14:23;4.20;99.90
71367;DHT22;60030;52.274;8.040;2023-03-02T09:16:50;4.50;99.90
71367;DHT22;60030;52.274;8.040;2023-03-02T09:19:18;4.70;99.90
71367;DHT22;60030;52.274;8.040;2023-03-02T09:21:45;4.50;99.90
71367;DHT22;60030;52.274;8.040;2023-03-02T09:24:14;4.80;99.90
71367;DHT22;60030;52.274;8.040;2023-03-02T09:26:41;4.60;99.90
71367;DHT22;60030;52.274;8.040;2023-03-02T09:29:08;4.30;99.90
71367;DHT22;60030;52.274;8.040;2023-03-02T09:31:35;3.90;99.90
71367;DHT22;60030;52.274;8.040;2023-03-02T09:34:03;3.90;99.90
71367;DHT22;60030;52.274;8.040;2023-03-02T09:36:30;3.90;99.90
71367;DHT22;60030;52.274;8.040;2023-03-02T09:38:59;4.10;99.90
71367;DHT22;60030;52.274;8.040;2023-03-02T09:44:35;4.80;99.90
71367;DHT22;60030;52.274;8.040;2023-03-02T09:47:13;4.50;99.90
71367;DHT22;60030;52.274;8.040;2023-03-02T09:49:54;4.80;99.90
71367;DHT22;60030;52.274;8.040;2023-03-02T09:52:30;5.00;99.90
71367;DHT22;60030;52.274;8.040;2023-03-02T09:54:59;4.90;99.90
71367;DHT22;60030;52.274;8.040;2023-03-02T09:57:31;4.60;99.90
71367;DHT22;60030;52.274;8.040;2023-03-02T10:00:03;4.60;99.90
71367;DHT22;60030;52.274;8.040;2023-03-02T10:02:43;4.70;99.90
71367;DHT22;60030;52.274;8.040;2023-03-02T10:05:16;4.50;99.90
71367;DHT22;60030;52.274;8.040;2023-03-02T10:07:43;4.70;99.90
71367;DHT22;60030;52.274;8.040;2023-03-02T10:10:22;4.40;99.90
71367;DHT22;60030;52.274;8.040;2023-03-02T10:13:01;4.60;99.90
71367;DHT22;60030;52.274;8.040;2023-03-02T10:15:37;4.90;99.90
71367;DHT22;60030;52.274;8.040;2023-03-02T10:18:16;5.00;99.90
71367;DHT22;60030;52.274;8.040;2023-03-02T10:20:48;4.80;99.90
71367;DHT22;60030;52.274;8.040;2023-03-02T10:23:35;4.70;99.90
71367;DHT22;60030;52.274;8.040;2023-03-02T10:28:59;4.50;99.90
71367;DHT22;60030;52.274;8.040;2023-03-02T10:31:29;4.50;99.90
71367;DHT22;60030;52.274;8.040;2023-03-02T10:33:56;4.70;99.90
71367;DHT22;60030;52.274;8.040;2023-03-02T10:36:25;4.70;99.90
71367;DHT22;60030;52.274;8.040;2023-03-02T10:38:53;4.60;99.90
71367;DHT22;60030;52.274;8.040;2023-03-02T10:41:24;4.90;99.90
71367;DHT22;60030;52.274;8.040;2023-03-02T10:43:56;5.20;99.90
71367;DHT22;60030;52.274;8.040;2023-03-02T10:46:25;5.40;99.90
71367;DHT22;60030;52.274;8.040;2023-03-02T10:48:54;5.00;99.90
71367;DHT22;60030;52.274;8.040;2023-03-02T10:51:25;5.20;99.90
71367;DHT22;60030;52.274;8.040;2023-03-02T10:54:08;5.20;99.90
71367;DHT22;60030;52.274;8.040;2023-03-02T10:56:36;5.30;99.90
71367;DHT22;60030;52.274;8.040;2023-03-02T10:59:39;5.20;99.90
71367;DHT22;60030;52.274;8.040;2023-03-02T11:02:15;5.10;99.90
71367;DHT22;60030;52.274;8.040;2023-03-02T11:04:43;5.20;99.90
71367;DHT22;60030;52.274;8.040;2023-03-02T11:07:15;4.90;99.90
71367;DHT22;60030;52.274;8.040;2023-03-02T11:09:42;5.10;99.90
71367;DHT22;60030;52.274;8.040;2023-03-02T11:12:14;5.20;99.90
71367;DHT22;60030;52.274;8.040;2023-03-02T11:14:43;5.20;99.90
71367;DHT22;60030;52.274;8.040;2023-03-02T11:17:28;5.50;99.90
71367;DHT22;60030;52.274;8.040;2023-03-02T11:19:55;5.40;99.90
71367;DHT22;60030;52.274;8.040;2023-03-02T11:22:29;6.00;99.90
71367;DHT22;60030;52.274;8.040;2023-03-02T11:25:01;6.30;99.90
71367;DHT22;60030;52.274;8.040;2023-03-02T11:27:33;6.50;99.90
71367;DHT22;60030;52.274;8.040;2023-03-02T11:30:08;6.80;99.90
71367;DHT22;60030;52.274;8.040;2023-03-02T11:32:42;6.70;99.90
71367;DHT22;60030;52.274;8.040;2023-03-02T11:35:13;6.80;99.90
71367;DHT22;60030;52.274;8.040;2023-03-02T11:37:47;7.30;99.90
71367;DHT22;60030;52.274;8.040;2023-03-02T11:40:20;7.30;99.90
71367;DHT22;60030;52.274;8.040;2023-03-02T11:42:49;7.50;99.90
71367;DHT22;60030;52.274;8.040;2023-03-02T11:45:20;7.50;99.90
71367;DHT22;60030;52.274;8.040;2023-03-02T11:47:51;7.50;99.90
71367;DHT22;60030;52.274;8.040;2023-03-02T11:50:19;7.70;99.90
71367;DHT22;60030;52.274;8.040;2023-03-02T11:52:50;7.80;99.90
71367;DHT22;60030;52.274;8.040;2023-03-02T11:55:20;8.20;99.90
71367;DHT22;60030;52.274;8.040;2023-03-02T11:57:50;8.00;99.90
71367;DHT22;60030;52.274;8.040;2023-03-02T12:00:29;7.80;99.90
71367;DHT22;60030;52.274;8.040;2023-03-02T12:02:58;8.40;99.90
71367;DHT22;60030;52.274;8.040;2023-03-02T12:05:27;8.30;99.90
71367;DHT22;60030;52.274;8.040;2023-03-02T12:07:58;8.70;99.90
71367;DHT22;60030;52.274;8.040;2023-03-02T12:10:31;8.90;99.90
71367;DHT22;60030;52.274;8.040;2023-03-02T12:13:05;9.10;99.90
71367;DHT22;60030;52.274;8.040;2023-03-02T12:15:40;8.90;99.90
71367;DHT22;60030;52.274;8.040;2023-03-02T12:18:15;9.10;99.90
71367;DHT22;60030;52.274;8.040;2023-03-02T12:20:42;9.10;99.90
71367;DHT22;60030;52.274;8.040;2023-03-02T12:23:21;8.90;99.90
71367;DHT22;60030;52.274;8.040;2023-03-02T12:25:48;9.30;99.90
71367;DHT22;60030;52.274;8.040;2023-03-02T12:28:28;9.70;99.90
71367;DHT22;60030;52.274;8.040;2023-03-02T12:31:07;9.90;99.90
71367;DHT22;60030;52.274;8.040;2023-03-02T12:33:43;9.30;99.90
71367;DHT22;60030;52.274;8.040;2023-03-02T12:36:14;9.00;99.90
71367;DHT22;60030;52.274;8.040;2023-03-02T12:38:49;9.20;99.90
71367;DHT22;60030;52.274;8.040;2023-03-02T12:41:37;9.60;99.90
71367;DHT22;60030;52.274;8.040;2023-03-02T12:44:24;9.90;99.90
71367;DHT22;60030;52.274;8.040;2023-03-02T12:46:58;9.40;99.90
71367;DHT22;60030;52.274;8.040;2023-03-02T12:49:41;9.40;99.90
71367;DHT22;60030;52.274;8.040;2023-03-02T12:52:20;9.40;99.90
71367;DHT22;60030;52.274;8.040;2023-03-02T12:54:58;9.70;99.90
71367;DHT22;60030;52.274;8.040;2023-03-02T12:57:26;10.50;99.90
71367;DHT22;60030;52.274;8.040;2023-03-02T12:59:55;10.80;99.90
71367;DHT22;60030;52.274;8.040;2023-03-02T13:02:26;10.80;99.90
71367;DHT22;60030;52.274;8.040;2023-03-02T13:04:55;10.40;99.90
71367;DHT22;60030;52.274;8.040;2023-03-02T13:07:25;10.70;99.90
71367;DHT22;60030;52.274;8.040;2023-03-02T13:09:56;11.30;99.90
71367;DHT22;60030;52.274;8.040;2023-03-02T13:12:25;11.10;99.90
71367;DHT22;60030;52.274;8.040;2023-03-02T13:14:55;10.70;99.90
71367;DHT22;60030;52.274;8.040;2023-03-02T13:17:26;10.70;99.90
71367;DHT22;60030;52.274;8.040;2023-03-02T13:19:56;11.20;99.90
71367;DHT22;60030;52.274;8.040;2023-03-02T13:22:24;11.70;99.90
71367;DHT22;60030;52.274;8.040;2023-03-02T13:24:55;12.10;99.90
71367;DHT22;60030;52.274;8.040;2023-03-02T13:27:24;12.00;99.90
71367;DHT22;60030;52.274;8.040;2023-03-02T13:29:52;12.20;99.90
71367;DHT22;60030;52.274;8.040;2023-03-02T13:32:22;12.60;99.90
71367;DHT22;60030;52.274;8.040;2023-03-02T13:34:52;12.70;99.90
71367;DHT22;60030;52.274;8.040;2023-03-02T13:37:33;13.80;97.90
71367;DHT22;60030;52.274;8.040;2023-03-02T13:40:05;13.70;96.00
71367;DHT22;60030;52.274;8.040;2023-03-02T13:42:35;14.50;92.90
71367;DHT22;60030;52.274;8.040;2023-03-02T13:45:31;15.20;90.30
71367;DHT22;60030;52.274;8.040;2023-03-02T13:47:59;15.50;87.40
71367;DHT22;60030;52.274;8.040;2023-03-02T13:50:39;15.80;83.90
71367;DHT22;60030;52.274;8.040;2023-03-02T13:53:06;16.60;75.50
71367;DHT22;60030;52.274;8.040;2023-03-02T13:55:34;16.90;72.30
71367;DHT22;60030;52.274;8.040;2023-03-02T13:58:01;16.20;74.40
71367;DHT22;60030;52.274;8.040;2023-03-02T14:00:31;17.80;70.40
71367;DHT22;60030;52.274;8.040;2023-03-02T14:02:59;16.40;70.80
71367;DHT22;60030;52.274;8.040;2023-03-02T14:05:27;16.20;75.10
71367;DHT22;60030;52.274;8.040;2023-03-02T14:07:59;17.00;70.60
71367;DHT22;60030;52.274;8.040;2023-03-02T14:10:27;16.90;72.00
71367;DHT22;60030;52.274;8.040;2023-03-02T14:12:59;18.10;68.90
71367;DHT22;60030;52.274;8.040;2023-03-02T14:15:30;18.90;65.10
71367;DHT22;60030;52.274;8.040;2023-03-02T14:17:57;19.00;63.80
71367;DHT22;60030;52.274;8.040;2023-03-02T14:20:25;19.40;61.40
71367;DHT22;60030;52.274;8.040;2023-03-02T14:22:52;19.00;62.20
71367;DHT22;60030;52.274;8.040;2023-03-02T14:25:20;18.00;63.00
71367;DHT22;60030;52.274;8.040;2023-03-02T14:27:47;17.50;65.40
71367;DHT22;60030;52.274;8.040;2023-03-02T14:30:17;16.50;69.10
71367;DHT22;60030;52.274;8.040;2023-03-02T14:32:45;14.20;77.30
71367;DHT22;60030;52.274;8.040;2023-03-02T14:35:14;14.20;78.90
71367;DHT22;60030;52.274;8.040;2023-03-02T14:37:43;13.70;80.90
71367;DHT22;60030;52.274;8.040;2023-03-02T14:40:16;13.10;82.10
71367;DHT22;60030;52.274;8.040;2023-03-02T14:42:45;13.40;85.30
71367;DHT22;60030;52.274;8.040;2023-03-02T14:45:13;12.60;88.60
71367;DHT22;60030;52.274;8.040;2023-03-02T14:47:41;12.60;89.10
71367;DHT22;60030;52.274;8.040;2023-03-02T14:50:09;12.70;90.60
71367;DHT22;60030;52.274;8.040;2023-03-02T14:52:39;11.30;94.20
71367;DHT22;60030;52.274;8.040;2023-03-02T14:55:12;11.70;95.50
71367;DHT22;60030;52.274;8.040;2023-03-02T14:57:41;11.60;96.10
71367;DHT22;60030;52.274;8.040;2023-03-02T15:00:13;10.20;99.90
71367;DHT22;60030;52.274;8.040;2023-03-02T15:02:41;10.20;99.90
71367;DHT22;60030;52.274;8.040;2023-03-02T15:05:08;10.10;99.90
71367;DHT22;60030;52.274;8.040;2023-03-02T15:07:35;9.90;99.90
71367;DHT22;60030;52.274;8.040;2023-03-02T15:10:05;9.70;99.90
71367;DHT22;60030;52.274;8.040;2023-03-02T15:12:32;9.30;99.90
71367;DHT22;60030;52.274;8.040;2023-03-02T15:14:59;9.20;99.90
71367;DHT22;60030;52.274;8.040;2023-03-02T15:17:28;9.30;99.90
71367;DHT22;60030;52.274;8.040;2023-03-02T15:19:55;8.90;99.90
71367;DHT22;60030;52.274;8.040;2023-03-02T15:22:22;8.90;99.90
71367;DHT22;60030;52.274;8.040;2023-03-02T15:24:49;9.10;99.90
71367;DHT22;60030;52.274;8.040;2023-03-02T15:27:16;8.90;99.90
71367;DHT22;60030;52.274;8.040;2023-03-02T15:29:44;9.00;99.90
71367;DHT22;60030;52.274;8.040;2023-03-02T15:32:11;8.70;99.90
71367;DHT22;60030;52.274;8.040;2023-03-02T15:34:40;8.60;99.90
71367;DHT22;60030;52.274;8.040;2023-03-02T15:37:08;8.40;99.90
71367;DHT22;60030;52.274;8.040;2023-03-02T15:39:36;8.20;99.90
71367;DHT22;60030;52.274;8.040;2023-03-02T15:42:03;7.50;99.90
71367;DHT22;60030;52.274;8.040;2023-03-02T15:44:30;7.40;99.90
71367;DHT22;60030;52.274;8.040;2023-03-02T15:46:59;7.80;99.90
71367;DHT22;60030;52.274;8.040;2023-03-02T15:49:26;8.00;99.90
71367;DHT22;60030;52.274;8.040;2023-03-02T15:51:56;7.70;99.90
71367;DHT22;60030;52.274;8.040;2023-03-02T15:54:23;8.00;99.90
71367;DHT22;60030;52.274;8.040;2023-03-02T15:56:51;8.20;99.90
71367;DHT22;60030;52.274;8.040;2023-03-02T15:59:19;8.40;99.90
71367;DHT22;60030;52.274;8.040;2023-03-02T16:01:46;8.20;99.90
71367;DHT22;60030;52.274;8.040;2023-03-02T16:04:13;8.00;99.90
71367;DHT22;60030;52.274;8.040;2023-03-02T16:06:40;7.90;99.90